Time;durP1;ratioP1;P1;durP2;ratioP2;P2;SDS_P1;SDS_P2;PMS_P1;PMS_P2;Temp;Humidity;BMP_temperature;BMP_pressure;BME280_temperature;BME280_humidity;BME280_pressure;Samples;Min_cycle;Max_cycle;Signal;HPM_P1;HPM_P2
2023/05/22 00:01:13;;;;;;;9.25;5.22;;;21.50;82.60;;;;;;4985297;28;20167;-54
2023/05/22 00:03:39;;;;;;;8.65;5.35;;;21.50;82.70;;;;;;5001638;28;20506;-55
2023/05/22 00:06:08;;;;;;;7.25;5.25;;;21.40;82.60;;;;;;4985021;28;20027;-55
2023/05/22 00:08:34;;;;;;;5.38;4.50;;;21.40;82.60;;;;;;4985287;28;20034;-55
2023/05/22 00:11:00;;;;;;;5.25;4.68;;;21.50;82.70;;;;;;4984780;28;20035;-55
2023/05/22 00:13:25;;;;;;;5.88;4.53;;;21.40;82.70;;;;;;4984819;28;20382;-54
2023/05/22 00:15:51;;;;;;;5.20;4.70;;;21.40;82.80;;;;;;4986384;28;20062;-54
2023/05/22 00:18:18;;;;;;;6.93;5.43;;;21.40;82.90;;;;;;4986352;28;20074;-54
2023/05/22 00:20:45;;;;;;;5.60;5.10;;;21.30;82.90;;;;;;4985107;28;20553;-53
2023/05/22 00:23:11;;;;;;;6.65;5.18;;;21.30;83.00;;;;;;4986084;28;20046;-55
2023/05/22 00:25:37;;;;;;;10.35;4.72;;;21.30;83.10;;;;;;4984614;28;20022;-55
2023/05/22 00:28:03;;;;;;;6.72;5.03;;;21.30;83.20;;;;;;4984704;28;20053;-54
2023/05/22 00:30:29;;;;;;;5.50;5.00;;;21.30;83.20;;;;;;4984847;28;20031;-54
2023/05/22 00:32:55;;;;;;;5.63;5.13;;;21.20;83.20;;;;;;4986025;28;20046;-54
2023/05/22 00:35:21;;;;;;;6.68;5.10;;;21.20;83.30;;;;;;4986134;28;20023;-54
2023/05/22 00:37:46;;;;;;;5.32;4.82;;;21.20;83.40;;;;;;4985825;28;20099;-55
2023/05/22 00:40:12;;;;;;;5.35;4.85;;;21.20;83.40;;;;;;4985929;28;20033;-55
2023/05/22 00:42:38;;;;;;;6.30;5.13;;;21.10;83.40;;;;;;4984531;28;20190;-55
2023/05/22 00:45:05;;;;;;;6.38;5.18;;;21.10;83.40;;;;;;4983998;28;20538;-54
2023/05/22 00:47:31;;;;;;;5.55;4.95;;;21.10;83.50;;;;;;4984432;28;20035;-54
2023/05/22 00:49:57;;;;;;;6.72;4.82;;;21.10;83.60;;;;;;4984517;28;20058;-55
2023/05/22 00:52:22;;;;;;;4.97;4.47;;;21.10;83.70;;;;;;4984319;28;20026;-54
2023/05/22 00:54:48;;;;;;;5.85;5.20;;;21.00;83.80;;;;;;4984837;28;20027;-54
2023/05/22 00:57:14;;;;;;;9.40;4.43;;;21.00;83.80;;;;;;4984334;28;20138;-54
2023/05/22 00:59:39;;;;;;;5.70;4.90;;;21.00;84.00;;;;;;4984562;28;20023;-55
2023/05/22 01:02:05;;;;;;;5.88;4.68;;;20.90;84.00;;;;;;4984405;28;20484;-54
2023/05/22 01:04:31;;;;;;;5.75;5.25;;;20.90;84.10;;;;;;4984354;28;20054;-54
2023/05/22 01:06:57;;;;;;;5.40;4.90;;;20.90;84.20;;;;;;4968470;28;20031;-54
2023/05/22 01:09:23;;;;;;;5.53;5.03;;;20.80;84.20;;;;;;4984165;28;20584;-55
2023/05/22 01:12:04;;;;;;;5.30;4.80;;;20.80;84.30;;;;;;4984328;28;20067;-54
2023/05/22 01:15:11;;;;;;;5.30;4.80;;;20.80;84.40;;;;;;4984399;28;20022;-54
2023/05/22 01:18:03;;;;;;;5.45;4.40;;;20.80;84.50;;;;;;4969898;28;20135;-54
2023/05/22 01:20:39;;;;;;;5.20;4.70;;;20.80;84.50;;;;;;4984426;28;20110;-54
2023/05/22 01:23:11;;;;;;;5.45;4.95;;;20.70;84.60;;;;;;4984546;28;20039;-54
2023/05/22 01:26:01;;;;;;;7.43;4.93;;;20.70;84.70;;;;;;4986017;28;20034;-54
2023/05/22 01:28:40;;;;;;;5.78;5.18;;;20.70;84.80;;;;;;4985696;28;20035;-53
2023/05/22 01:31:16;;;;;;;5.60;4.78;;;20.70;84.80;;;;;;4984059;28;20037;-55
2023/05/22 01:33:45;;;;;;;;;;;20.60;84.90;;;;;;4984766;28;20031;-54
2023/05/22 01:36:13;;;;;;;5.43;4.93;;;20.60;85.00;;;;;;5016821;28;19930;-55
2023/05/22 01:38:39;;;;;;;5.88;5.28;;;20.60;85.10;;;;;;4984165;28;20066;-54
2023/05/22 01:41:04;;;;;;;5.97;4.88;;;20.50;85.20;;;;;;4984482;28;20082;-54
2023/05/22 01:43:30;;;;;;;5.28;4.78;;;20.50;85.30;;;;;;4968063;28;20063;-54
2023/05/22 01:45:56;;;;;;;4.93;4.47;;;20.60;85.40;;;;;;4984206;28;20078;-55
2023/05/22 01:48:21;;;;;;;5.25;4.75;;;20.50;85.40;;;;;;4985585;28;20293;-55
2023/05/22 01:50:47;;;;;;;5.40;4.90;;;20.50;85.60;;;;;;4985293;28;20031;-55
2023/05/22 01:53:20;;;;;;;5.38;4.85;;;20.40;85.60;;;;;;4984200;28;20027;-55
2023/05/22 01:56:00;;;;;;;5.63;4.65;;;20.40;85.80;;;;;;4984343;28;20027;-54
2023/05/22 01:58:32;;;;;;;6.63;5.22;;;20.40;85.90;;;;;;4987220;28;20034;-55
2023/05/22 02:00:59;;;;;;;5.25;4.85;;;20.30;86.10;;;;;;4971429;28;20037;-55
2023/05/22 02:03:28;;;;;;;5.47;4.95;;;20.30;86.10;;;;;;4987237;28;20043;-55
2023/05/22 02:05:54;;;;;;;7.38;5.18;;;20.30;86.20;;;;;;4987783;28;20065;-54
2023/05/22 02:08:20;;;;;;;5.32;4.85;;;20.30;86.30;;;;;;4988782;28;20035;-54
2023/05/22 02:10:46;;;;;;;5.32;4.82;;;20.20;86.50;;;;;;4987235;28;20041;-55
2023/05/22 02:13:11;;;;;;;5.53;5.03;;;20.20;86.50;;;;;;4987303;28;20026;-54
2023/05/22 02:15:37;;;;;;;6.13;4.68;;;20.20;86.60;;;;;;4987343;28;20027;-55
2023/05/22 02:18:04;;;;;;;7.13;4.72;;;20.20;86.70;;;;;;4987228;28;20384;-54
2023/05/22 02:20:30;;;;;;;6.85;4.93;;;20.20;86.80;;;;;;4987076;28;20030;-54
2023/05/22 02:22:55;;;;;;;5.40;4.90;;;20.20;86.80;;;;;;4986988;28;20038;-55
2023/05/22 02:25:21;;;;;;;5.00;4.57;;;20.10;86.80;;;;;;5003314;28;20121;-55
2023/05/22 02:27:46;;;;;;;5.78;5.18;;;20.10;86.90;;;;;;4988486;28;20054;-54
2023/05/22 02:30:12;;;;;;;5.75;5.07;;;20.10;87.00;;;;;;4986843;28;20133;-54
2023/05/22 02:32:39;;;;;;;6.15;4.43;;;20.10;87.00;;;;;;4988352;28;20047;-55
2023/05/22 02:35:04;;;;;;;6.55;4.95;;;20.00;87.20;;;;;;4987091;28;20034;-55
2023/05/22 02:37:30;;;;;;;5.38;4.63;;;20.00;87.30;;;;;;4988300;28;20031;-54
2023/05/22 02:39:56;;;;;;;5.60;5.00;;;20.00;87.40;;;;;;4987156;28;20030;-54
2023/05/22 02:42:22;;;;;;;5.43;4.93;;;19.90;87.40;;;;;;4987987;28;20039;-54
2023/05/22 02:44:47;;;;;;;5.32;4.80;;;19.90;87.60;;;;;;4986792;28;20107;-55
2023/05/22 02:47:13;;;;;;;6.93;5.10;;;19.90;88.50;;;;;;4988179;28;20030;-54
2023/05/22 02:49:39;;;;;;;5.35;4.47;;;19.90;87.80;;;;;;4986679;28;20118;-54
2023/05/22 02:52:04;;;;;;;6.40;5.22;;;19.90;88.00;;;;;;4986810;28;20082;-54
2023/05/22 02:54:30;;;;;;;7.10;4.88;;;19.80;87.90;;;;;;5019355;28;20023;-55
2023/05/22 02:56:55;;;;;;;5.93;5.18;;;19.80;88.00;;;;;;4987837;28;20065;-55
2023/05/22 02:59:21;;;;;;;5.13;4.68;;;19.80;88.10;;;;;;4986642;28;20134;-54
2023/05/22 03:01:47;;;;;;;5.60;4.78;;;19.70;88.10;;;;;;4986369;28;20039;-55
2023/05/22 03:04:12;;;;;;;5.75;5.00;;;19.70;88.30;;;;;;4986672;28;20026;-54
2023/05/22 03:06:38;;;;;;;5.68;5.18;;;19.70;88.50;;;;;;4986631;28;20037;-54
2023/05/22 03:09:04;;;;;;;5.78;5.18;;;19.70;88.60;;;;;;4986559;28;20026;-54
2023/05/22 03:11:30;;;;;;;5.45;4.97;;;19.70;88.60;;;;;;4987609;28;20023;-55
2023/05/22 03:13:56;;;;;;;5.55;5.00;;;19.60;88.70;;;;;;5002727;28;20019;-55
2023/05/22 03:16:21;;;;;;;6.22;5.32;;;19.60;88.80;;;;;;4986719;28;20046;-54
2023/05/22 03:18:49;;;;;;;4.70;4.30;;;19.60;88.80;;;;;;4985116;28;20499;-55
2023/05/22 03:21:14;;;;;;;4.90;4.50;;;19.60;88.90;;;;;;4985415;28;20050;-55
2023/05/22 03:23:40;;;;;;;5.20;4.70;;;19.60;89.00;;;;;;4985171;28;20031;-54
2023/05/22 03:26:05;;;;;;;5.07;4.55;;;19.50;89.00;;;;;;4985226;28;20129;-55
2023/05/22 03:28:31;;;;;;;5.35;4.85;;;19.50;89.00;;;;;;4986508;28;20361;-54
2023/05/22 03:30:56;;;;;;;4.85;4.35;;;19.50;89.10;;;;;;4986556;28;20530;-54
2023/05/22 03:33:22;;;;;;;5.70;4.88;;;19.50;89.20;;;;;;4984867;28;20534;-54
2023/05/22 03:35:48;;;;;;;12.48;5.38;;;19.40;89.20;;;;;;4986388;28;20148;-54
2023/05/22 03:38:14;;;;;;;6.72;4.85;;;19.40;89.40;;;;;;4985103;28;20023;-54
2023/05/22 03:40:39;;;;;;;5.32;4.82;;;19.40;89.60;;;;;;4986401;28;20050;-54
2023/05/22 03:43:05;;;;;;;5.40;4.90;;;19.40;89.80;;;;;;4984905;28;20045;-54
2023/05/22 03:45:31;;;;;;;5.18;4.68;;;19.30;89.80;;;;;;4986172;28;20090;-55
2023/05/22 03:47:56;;;;;;;5.22;4.80;;;19.30;89.80;;;;;;4986334;28;20045;-55
2023/05/22 03:50:22;;;;;;;5.10;4.68;;;19.30;90.00;;;;;;4986165;28;20094;-55
2023/05/22 03:52:47;;;;;;;5.22;4.45;;;19.30;90.00;;;;;;4986202;28;20031;-54
2023/05/22 03:55:13;;;;;;;4.95;4.38;;;19.20;90.00;;;;;;4986031;28;20027;-54
2023/05/22 03:57:38;;;;;;;6.57;5.22;;;19.20;90.00;;;;;;4986100;28;20055;-55
2023/05/22 04:00:08;;;;;;;5.88;4.80;;;19.20;90.10;;;;;;4986140;28;20034;-54
2023/05/22 04:02:37;;;;;;;6.35;5.50;;;19.20;90.20;;;;;;4986031;28;20039;-54
2023/05/22 04:05:05;;;;;;;6.95;5.35;;;19.10;90.10;;;;;;4984609;28;20083;-54
2023/05/22 04:07:31;;;;;;;5.32;4.80;;;19.10;90.10;;;;;;4985908;28;20542;-55
2023/05/22 04:09:56;;;;;;;5.80;4.72;;;19.10;90.10;;;;;;4968275;28;20093;-54
2023/05/22 04:12:22;;;;;;;4.93;4.43;;;19.10;90.20;;;;;;4985910;28;20031;-54
2023/05/22 04:14:47;;;;;;;5.60;5.10;;;19.10;90.20;;;;;;4984644;28;20115;-54
2023/05/22 04:17:13;;;;;;;5.43;4.57;;;19.10;90.30;;;;;;4949265;28;1067635;-54
2023/05/22 04:19:39;;;;;;;6.22;4.47;;;19.00;90.30;;;;;;4985926;28;20030;-54
2023/05/22 04:22:05;;;;;;;6.15;4.75;;;19.00;90.30;;;;;;4984903;28;20106;-54
2023/05/22 04:24:31;;;;;;;6.22;4.68;;;19.00;90.40;;;;;;4986095;28;20093;-54
2023/05/22 04:26:59;;;;;;;5.68;5.05;;;19.00;90.50;;;;;;4986030;28;20031;-55
2023/05/22 04:29:25;;;;;;;6.50;5.18;;;19.00;90.50;;;;;;4985988;28;20022;-54
2023/05/22 04:31:53;;;;;;;5.45;4.95;;;19.00;90.50;;;;;;4984640;28;20062;-55
2023/05/22 04:34:19;;;;;;;5.53;4.72;;;18.90;90.50;;;;;;4984839;28;20022;-54
2023/05/22 04:36:45;;;;;;;6.05;4.70;;;18.90;90.60;;;;;;4984709;28;20053;-54
2023/05/22 04:39:12;;;;;;;5.82;5.28;;;18.90;90.60;;;;;;4984277;28;20035;-55
2023/05/22 04:41:39;;;;;;;12.93;4.60;;;18.90;90.60;;;;;;4984664;28;20046;-54
2023/05/22 04:44:05;;;;;;;5.43;4.93;;;18.90;90.70;;;;;;4984969;28;20030;-54
2023/05/22 04:46:33;;;;;;;5.72;4.90;;;18.80;90.70;;;;;;4986172;28;20054;-54
2023/05/22 04:49:00;;;;;;;5.72;5.20;;;18.80;90.70;;;;;;4984842;28;20030;-54
2023/05/22 04:51:27;;;;;;;6.45;5.07;;;18.80;90.70;;;;;;4984909;28;20034;-55
2023/05/22 04:53:54;;;;;;;5.90;5.30;;;18.80;90.80;;;;;;4985092;28;20034;-55
2023/05/22 04:56:20;;;;;;;6.55;5.28;;;18.80;90.80;;;;;;4985895;28;20074;-54
2023/05/22 04:58:47;;;;;;;5.22;4.63;;;18.70;90.80;;;;;;4984961;28;20023;-55
2023/05/22 05:01:13;;;;;;;5.55;5.00;;;18.70;90.80;;;;;;4985008;28;20038;-54
2023/05/22 05:03:38;;;;;;;5.30;4.78;;;18.70;90.90;;;;;;4986201;28;20039;-54
2023/05/22 05:06:04;;;;;;;5.80;5.20;;;18.70;91.00;;;;;;4985980;28;20026;-54
2023/05/22 05:08:30;;;;;;;5.70;5.10;;;18.70;91.00;;;;;;4986153;28;20035;-54
2023/05/22 05:10:55;;;;;;;6.55;4.80;;;18.70;91.00;;;;;;4985890;28;20023;-54
2023/05/22 05:13:21;;;;;;;7.63;5.05;;;18.70;91.10;;;;;;4984446;28;20023;-55
2023/05/22 05:15:46;;;;;;;5.35;4.85;;;18.70;91.10;;;;;;4984574;28;20027;-54
2023/05/22 05:18:12;;;;;;;5.38;4.88;;;18.70;91.10;;;;;;4984656;28;20035;-54
2023/05/22 05:20:37;;;;;;;7.13;4.97;;;18.60;91.10;;;;;;4985571;28;20041;-54
2023/05/22 05:23:03;;;;;;;7.82;4.95;;;18.60;91.20;;;;;;4985908;28;20062;-54
2023/05/22 05:25:28;;;;;;;8.27;4.63;;;18.60;91.20;;;;;;4985835;28;20030;-54
2023/05/22 05:27:55;;;;;;;6.20;5.07;;;18.60;91.20;;;;;;4984523;28;20034;-54
2023/05/22 05:30:20;;;;;;;6.18;5.05;;;18.60;91.20;;;;;;4985735;28;20034;-54
2023/05/22 05:32:46;;;;;;;6.90;4.90;;;18.60;91.20;;;;;;4986627;28;20022;-54
2023/05/22 05:35:11;;;;;;;5.35;4.85;;;18.60;91.30;;;;;;4988532;28;20043;-55
2023/05/22 05:37:37;;;;;;;8.18;5.78;;;18.60;91.30;;;;;;4989220;28;20035;-54
2023/05/22 05:40:05;;;;;;;8.68;5.28;;;18.60;91.30;;;;;;4989247;28;20126;-54
2023/05/22 05:42:31;;;;;;;6.28;5.35;;;18.60;91.60;;;;;;4989497;28;20053;-54
2023/05/22 05:44:56;;;;;;;5.72;4.80;;;18.60;91.30;;;;;;4987907;28;20527;-54
2023/05/22 05:47:22;;;;;;;5.95;5.20;;;18.60;91.30;;;;;;4971762;28;20452;-54
2023/05/22 05:49:48;;;;;;;6.03;4.80;;;18.60;91.30;;;;;;4988158;28;20526;-54
2023/05/22 05:52:13;;;;;;;5.65;5.00;;;18.60;91.30;;;;;;4987422;28;20038;-54
2023/05/22 05:54:45;;;;;;;10.20;4.68;;;18.60;91.30;;;;;;4987777;28;20019;-54
2023/05/22 05:57:10;;;;;;;9.55;5.18;;;18.60;91.30;;;;;;4988722;28;20357;-55
2023/05/22 05:59:36;;;;;;;5.13;4.70;;;18.60;91.30;;;;;;4987268;28;20095;-54
2023/05/22 06:02:01;;;;;;;7.43;5.07;;;18.60;91.40;;;;;;4988616;28;20051;-54
2023/05/22 06:04:27;;;;;;;9.57;5.65;;;18.60;91.50;;;;;;4988460;28;20034;-54
2023/05/22 06:06:53;;;;;;;9.75;5.78;;;18.60;91.50;;;;;;4987624;28;20045;-54
2023/05/22 06:09:18;;;;;;;8.27;5.45;;;18.60;91.50;;;;;;4988735;28;20044;-54
2023/05/22 06:11:44;;;;;;;6.07;5.20;;;18.60;91.60;;;;;;4987217;28;20395;-54
2023/05/22 06:14:09;;;;;;;6.00;5.35;;;18.60;91.60;;;;;;4987159;28;20033;-54
2023/05/22 06:16:35;;;;;;;6.20;5.60;;;18.60;91.70;;;;;;4984681;28;20042;-54
2023/05/22 06:19:00;;;;;;;8.50;5.45;;;18.60;91.70;;;;;;4988369;28;20046;-54
2023/05/22 06:21:26;;;;;;;9.73;5.50;;;18.60;91.80;;;;;;4986842;28;20116;-55
2023/05/22 06:23:52;;;;;;;6.38;5.72;;;18.60;91.90;;;;;;4985901;28;20118;-54
2023/05/22 06:26:17;;;;;;;6.47;4.95;;;18.60;91.90;;;;;;4999701;28;20052;-54
2023/05/22 06:28:43;;;;;;;7.80;5.82;;;18.60;92.00;;;;;;4985318;28;20105;-54
2023/05/22 06:31:09;;;;;;;7.07;6.38;;;18.60;91.90;;;;;;5016025;28;20034;-54
2023/05/22 06:33:35;;;;;;;8.18;5.80;;;18.60;92.30;;;;;;4989555;28;20027;-54
2023/05/22 06:36:02;;;;;;;9.65;5.90;;;18.60;92.10;;;;;;4986289;28;20428;-54
2023/05/22 06:38:28;;;;;;;9.20;5.57;;;18.60;92.20;;;;;;4985425;28;20117;-55
2023/05/22 06:40:53;;;;;;;10.43;5.80;;;18.60;92.20;;;;;;5004844;28;20199;-54
2023/05/22 06:43:19;;;;;;;7.97;6.22;;;18.60;92.20;;;;;;4989225;28;20107;-55
2023/05/22 06:45:45;;;;;;;10.38;5.88;;;18.60;92.30;;;;;;4990031;28;20030;-54
2023/05/22 06:48:11;;;;;;;7.85;5.63;;;18.60;92.40;;;;;;4986689;28;20039;-55
2023/05/22 06:50:36;;;;;;;6.13;5.53;;;18.60;92.40;;;;;;4990508;28;20038;-55
2023/05/22 06:53:02;;;;;;;11.55;6.15;;;18.60;92.50;;;;;;4985339;28;20089;-54
2023/05/22 06:55:27;;;;;;;15.02;6.60;;;18.60;92.50;;;;;;4985036;28;20038;-54
2023/05/22 06:57:53;;;;;;;13.73;6.70;;;18.60;92.50;;;;;;4992053;28;20030;-55
2023/05/22 07:00:19;;;;;;;6.57;5.80;;;18.60;92.80;;;;;;4987293;28;20027;-54
2023/05/22 07:02:45;;;;;;;8.05;5.72;;;18.60;92.40;;;;;;4983710;28;20078;-54
2023/05/22 07:05:10;;;;;;;16.92;6.18;;;18.70;92.40;;;;;;5016937;28;20026;-54
2023/05/22 07:07:36;;;;;;;11.88;6.38;;;18.70;92.40;;;;;;4983328;28;20110;-54
2023/05/22 07:10:01;;;;;;;12.70;6.53;;;18.70;92.40;;;;;;4989593;28;20030;-54
2023/05/22 07:12:28;;;;;;;12.00;6.25;;;18.70;92.30;;;;;;4984983;28;20349;-54
2023/05/22 07:14:53;;;;;;;14.25;6.38;;;18.70;92.30;;;;;;4988559;28;20113;-54
2023/05/22 07:17:20;;;;;;;57.47;10.25;;;18.70;92.20;;;;;;4990343;28;20502;-54
2023/05/22 07:19:46;;;;;;;88.53;13.27;;;18.80;92.10;;;;;;4984449;28;20036;-54
2023/05/22 07:22:12;;;;;;;32.83;8.18;;;18.80;92.20;;;;;;4989604;28;20035;-54
2023/05/22 07:24:37;;;;;;;15.60;6.80;;;18.80;92.20;;;;;;4994954;28;20041;-54
2023/05/22 07:27:04;;;;;;;27.00;7.28;;;18.80;92.10;;;;;;4979024;28;20097;-55
2023/05/22 07:29:29;;;;;;;29.20;7.40;;;18.80;92.10;;;;;;4998075;28;20034;-55
2023/05/22 07:31:55;;;;;;;27.05;7.22;;;18.80;92.10;;;;;;4984718;28;20037;-54
2023/05/22 07:34:21;;;;;;;28.40;7.57;;;18.80;92.10;;;;;;4972908;28;20369;-55
2023/05/22 07:36:47;;;;;;;19.50;7.60;;;18.80;92.10;;;;;;4974702;28;20035;-55
2023/05/22 07:39:12;;;;;;;29.05;7.43;;;18.90;92.10;;;;;;4989331;28;20038;-54
2023/05/22 07:41:38;;;;;;;17.65;6.75;;;18.90;92.10;;;;;;4989041;28;20070;-54
2023/05/22 07:44:04;;;;;;;28.02;7.47;;;18.90;92.00;;;;;;4993587;28;20467;-54
2023/05/22 07:46:30;;;;;;;20.55;6.35;;;18.90;92.00;;;;;;4988396;28;20064;-54
2023/05/22 07:48:55;;;;;;;31.00;7.00;;;18.90;92.10;;;;;;4989941;28;21292;-55
2023/05/22 07:51:21;;;;;;;28.98;6.93;;;19.00;92.00;;;;;;4988977;28;20037;-54
2023/05/22 07:53:46;;;;;;;22.55;6.47;;;18.90;92.00;;;;;;4991272;28;20085;-54
2023/05/22 07:56:12;;;;;;;25.65;6.82;;;19.00;91.90;;;;;;4998868;28;20023;-54
2023/05/22 07:58:38;;;;;;;16.60;5.97;;;19.00;91.80;;;;;;4990184;28;20160;-54
2023/05/22 08:01:04;;;;;;;18.13;5.95;;;19.00;91.70;;;;;;4992329;28;20105;-54
2023/05/22 08:03:30;;;;;;;24.35;6.10;;;19.10;91.70;;;;;;4994983;28;20166;-54
2023/05/22 08:05:55;;;;;;;24.02;5.70;;;19.10;91.60;;;;;;4988885;28;20057;-54
2023/05/22 08:08:21;;;;;;;22.58;5.47;;;19.10;91.50;;;;;;4988623;28;20391;-54
2023/05/22 08:10:47;;;;;;;17.35;5.28;;;19.10;91.30;;;;;;4986595;28;20492;-54
2023/05/22 08:13:14;;;;;;;21.20;4.78;;;19.20;91.20;;;;;;4983660;28;20046;-54
2023/05/22 08:15:40;;;;;;;10.93;4.82;;;19.20;91.30;;;;;;4982510;28;20073;-54
2023/05/22 08:18:05;;;;;;;15.68;4.13;;;19.20;91.20;;;;;;4982364;28;20034;-54
2023/05/22 08:20:31;;;;;;;16.55;4.78;;;19.20;90.80;;;;;;4982276;28;20023;-54
2023/05/22 08:22:56;;;;;;;32.28;5.43;;;19.20;90.80;;;;;;4986215;28;20031;-54
2023/05/22 08:25:22;;;;;;;35.85;6.20;;;19.20;90.80;;;;;;4983184;28;20041;-55
2023/05/22 08:27:47;;;;;;;38.83;5.65;;;19.30;90.70;;;;;;4994310;28;20094;-54
2023/05/22 08:30:13;;;;;;;21.77;5.72;;;19.30;90.60;;;;;;4985225;28;20034;-54
2023/05/22 08:32:38;;;;;;;21.77;4.85;;;19.30;90.50;;;;;;4985751;28;20043;-55
2023/05/22 08:35:04;;;;;;;19.33;4.88;;;19.30;90.30;;;;;;4985571;28;20053;-54
2023/05/22 08:37:30;;;;;;;13.10;4.40;;;19.40;90.30;;;;;;4984373;28;20380;-54
2023/05/22 08:39:55;;;;;;;11.27;4.15;;;19.30;90.00;;;;;;4985711;28;20026;-54
2023/05/22 08:42:21;;;;;;;13.73;4.05;;;19.40;89.60;;;;;;4985824;28;20047;-54
2023/05/22 08:44:47;;;;;;;17.45;4.70;;;19.40;89.60;;;;;;4984335;28;20031;-54
2023/05/22 08:47:13;;;;;;;29.45;5.28;;;19.40;89.50;;;;;;4984282;28;20099;-55
2023/05/22 08:49:39;;;;;;;19.10;4.50;;;19.50;89.90;;;;;;4966698;28;20333;-54
2023/05/22 08:52:13;;;;;;;13.35;4.38;;;19.50;90.10;;;;;;4984393;28;20045;-55
2023/05/22 08:54:42;;;;;;;16.55;4.25;;;19.50;89.40;;;;;;4984426;28;20082;-55
2023/05/22 08:57:08;;;;;;;16.13;3.75;;;19.50;89.10;;;;;;4968187;28;20081;-54
2023/05/22 08:59:35;;;;;;;11.35;3.92;;;19.50;88.80;;;;;;4985371;28;20035;-54
2023/05/22 09:02:00;;;;;;;22.17;4.25;;;19.60;88.30;;;;;;4984364;28;20342;-54
2023/05/22 09:04:27;;;;;;;8.35;3.42;;;19.60;88.10;;;;;;4967955;28;20085;-54
2023/05/22 09:06:53;;;;;;;7.90;3.25;;;19.60;87.70;;;;;;4983787;28;20083;-54
2023/05/22 09:09:19;;;;;;;5.47;2.85;;;19.60;86.50;;;;;;4984407;28;20399;-54
2023/05/22 09:11:45;;;;;;;4.75;2.80;;;19.70;86.40;;;;;;4968981;28;20089;-54
2023/05/22 09:14:11;;;;;;;7.07;3.20;;;19.70;86.40;;;;;;4987906;28;20022;-54
2023/05/22 09:16:46;;;;;;;3.35;2.75;;;19.70;86.10;;;;;;4988214;28;20026;-54
2023/05/22 09:19:13;;;;;;;8.60;3.47;;;19.70;86.00;;;;;;4988221;28;20107;-54
2023/05/22 09:21:39;;;;;;;6.05;3.40;;;19.80;86.20;;;;;;4989358;28;20050;-54
2023/05/22 09:24:07;;;;;;;5.68;2.70;;;19.80;86.30;;;;;;4987866;28;20035;-54
2023/05/22 09:26:33;;;;;;;5.95;2.83;;;19.80;86.30;;;;;;4988548;28;20045;-54
2023/05/22 09:28:59;;;;;;;7.80;3.53;;;19.80;86.20;;;;;;4967754;28;20419;-54
2023/05/22 09:31:25;;;;;;;4.47;3.28;;;19.90;86.20;;;;;;4988528;28;20027;-54
2023/05/22 09:33:50;;;;;;;5.68;3.10;;;19.90;86.00;;;;;;4987605;28;20065;-55
2023/05/22 09:36:16;;;;;;;6.82;3.08;;;19.90;85.60;;;;;;4988941;28;20023;-54
2023/05/22 09:38:41;;;;;;;8.68;3.22;;;20.00;85.10;;;;;;4987101;28;20062;-55
2023/05/22 09:41:07;;;;;;;7.68;3.03;;;20.00;85.00;;;;;;4977674;28;20061;-54
2023/05/22 09:43:33;;;;;;;7.40;3.30;;;20.00;85.40;;;;;;4988458;28;20031;-54
2023/05/22 09:46:05;;;;;;;5.03;3.05;;;20.00;84.60;;;;;;4967985;28;20035;-54
2023/05/22 09:48:37;;;;;;;5.15;2.80;;;20.10;84.30;;;;;;4968272;28;20031;-54
2023/05/22 09:51:03;;;;;;;4.50;2.47;;;20.10;83.90;;;;;;4982766;28;20031;-55
2023/05/22 09:53:29;;;;;;;5.22;2.88;;;20.20;83.50;;;;;;4999198;28;20023;-54
2023/05/22 09:55:56;;;;;;;7.00;3.53;;;20.20;83.30;;;;;;4983627;28;20061;-54
2023/05/22 09:58:22;;;;;;;9.10;3.25;;;20.30;83.40;;;;;;4983385;28;20058;-55
2023/05/22 10:00:48;;;;;;;16.50;3.42;;;20.30;83.30;;;;;;4983761;28;20046;-54
2023/05/22 10:03:16;;;;;;;26.83;4.78;;;20.30;82.90;;;;;;4984167;28;20047;-54
2023/05/22 10:05:49;;;;;;;13.02;3.50;;;20.40;82.70;;;;;;4986251;28;20097;-54
2023/05/22 10:08:17;;;;;;;8.35;3.58;;;20.40;82.20;;;;;;4965289;28;20357;-54
2023/05/22 10:10:44;;;;;;;9.27;3.58;;;20.50;82.00;;;;;;4985863;28;20029;-54
2023/05/22 10:13:10;;;;;;;6.60;3.17;;;20.50;81.70;;;;;;4985480;28;20035;-54
2023/05/22 10:15:36;;;;;;;4.20;3.03;;;20.60;81.50;;;;;;4985938;28;20389;-54
2023/05/22 10:18:02;;;;;;;5.85;3.25;;;20.60;81.40;;;;;;4965952;28;20035;-54
2023/05/22 10:20:28;;;;;;;17.23;4.18;;;20.60;81.20;;;;;;4970583;28;20247;-54
2023/05/22 10:22:54;;;;;;;11.88;3.50;;;20.70;80.90;;;;;;4987283;28;20039;-54
2023/05/22 10:25:24;;;;;;;20.08;4.40;;;20.70;80.80;;;;;;4982965;28;20146;-55
2023/05/22 10:27:53;;;;;;;23.08;4.75;;;20.70;80.70;;;;;;4985646;28;20035;-54
2023/05/22 10:30:46;;;;;;;23.25;4.80;;;20.80;80.50;;;;;;4979053;28;20045;-55
2023/05/22 10:33:43;;;;;;;17.25;3.65;;;20.80;80.50;;;;;;4985159;28;20083;-54
2023/05/22 10:36:36;;;;;;;14.43;4.38;;;20.90;80.30;;;;;;4971899;28;20407;-54
2023/05/22 10:39:22;;;;;;;36.33;6.05;;;20.90;79.80;;;;;;5000411;28;20037;-55
2023/05/22 10:41:47;;;;;;;21.95;6.30;;;21.00;79.70;;;;;;4970104;28;20039;-54
2023/05/22 10:44:13;;;;;;;26.85;4.90;;;21.10;79.80;;;;;;4998860;28;20039;-55
2023/05/22 10:46:39;;;;;;;17.63;4.53;;;21.20;79.50;;;;;;4982441;28;20133;-55
2023/05/22 10:49:04;;;;;;;21.42;4.28;;;21.30;79.30;;;;;;5019006;28;20037;-54
2023/05/22 10:51:30;;;;;;;22.10;4.85;;;21.40;79.00;;;;;;4975097;28;20042;-54
2023/05/22 10:54:04;;;;;;;18.90;4.57;;;21.40;78.90;;;;;;4976426;28;20030;-54
2023/05/22 10:56:36;;;;;;;23.70;4.90;;;21.40;78.60;;;;;;4995274;28;20022;-54
2023/05/22 10:59:06;;;;;;;22.58;5.07;;;21.50;78.20;;;;;;4985750;28;20122;-55
2023/05/22 11:01:36;;;;;;;28.63;5.63;;;21.50;78.20;;;;;;4985754;28;20026;-54
2023/05/22 11:04:07;;;;;;;26.50;5.55;;;21.60;77.90;;;;;;4987362;28;20060;-54
2023/05/22 11:07:05;;;;;;;20.48;5.38;;;21.70;77.70;;;;;;4989186;28;20019;-54
2023/05/22 11:09:46;;;;;;;44.78;6.85;;;21.80;77.60;;;;;;4988421;28;20446;-55
2023/05/22 11:12:29;;;;;;;21.80;5.72;;;21.90;77.40;;;;;;4977061;28;20133;-55
2023/05/22 11:15:04;;;;;;;35.05;6.05;;;22.00;77.20;;;;;;4978078;28;20475;-54
2023/05/22 11:17:30;;;;;;;;;;;22.10;76.70;;;;;;4981190;28;20111;-54
2023/05/22 11:20:03;;;;;;;25.10;5.43;;;22.20;76.50;;;;;;4998039;28;19911;-54
2023/05/22 11:22:36;;;;;;;27.83;6.00;;;22.30;76.70;;;;;;4981537;28;20038;-54
2023/05/22 11:25:07;;;;;;;44.25;7.05;;;22.40;75.80;;;;;;4980856;28;20367;-55
2023/05/22 11:27:33;;;;;;;16.08;4.80;;;22.50;75.50;;;;;;4982940;28;20047;-54
2023/05/22 11:30:00;;;;;;;32.20;6.50;;;22.60;75.20;;;;;;4977479;28;20049;-54
2023/05/22 11:32:26;;;;;;;20.90;6.05;;;22.70;75.10;;;;;;4976995;28;20472;-53
2023/05/22 11:34:52;;;;;;;32.40;5.65;;;22.80;75.00;;;;;;4984068;28;20035;-55
2023/05/22 11:37:17;;;;;;;19.40;5.30;;;22.90;75.00;;;;;;4979050;28;20058;-54
2023/05/22 11:39:54;;;;;;;26.15;6.22;;;23.00;74.70;;;;;;4983593;28;20065;-55
2023/05/22 11:42:20;;;;;;;20.58;5.60;;;23.10;74.10;;;;;;4990855;28;20081;-55
2023/05/22 11:44:46;;;;;;;24.65;5.63;;;23.20;73.90;;;;;;4986633;28;20450;-55
2023/05/22 11:47:11;;;;;;;16.85;5.32;;;23.30;73.80;;;;;;4982536;28;20042;-55
2023/05/22 11:49:37;;;;;;;28.15;6.22;;;23.30;73.60;;;;;;4973336;28;20042;-54
2023/05/22 11:52:03;;;;;;;15.77;4.85;;;23.40;73.70;;;;;;4996390;28;20041;-54
2023/05/22 11:54:32;;;;;;;19.10;5.28;;;23.50;73.50;;;;;;4983820;28;20033;-55
2023/05/22 11:56:57;;;;;;;18.15;4.80;;;23.50;73.20;;;;;;4983072;28;20153;-55
2023/05/22 11:59:23;;;;;;;13.98;5.18;;;23.60;72.80;;;;;;4983795;28;20102;-55
2023/05/22 12:01:49;;;;;;;26.50;6.18;;;23.70;72.20;;;;;;4984060;28;20035;-54
2023/05/22 12:04:15;;;;;;;42.58;6.90;;;23.80;72.00;;;;;;4968671;28;20061;-55
2023/05/22 12:06:41;;;;;;;17.88;5.13;;;23.90;71.80;;;;;;4984471;28;20459;-55
2023/05/22 12:09:07;;;;;;;12.90;4.97;;;24.00;71.30;;;;;;4979082;28;20073;-55
2023/05/22 12:11:36;;;;;;;21.90;5.65;;;24.00;70.70;;;;;;4966086;28;20039;-54
2023/05/22 12:14:02;;;;;;;29.10;6.78;;;24.10;70.20;;;;;;5012554;28;20067;-55
2023/05/22 12:16:33;;;;;;;28.35;6.25;;;24.20;69.90;;;;;;4988697;28;20143;-54
2023/05/22 12:18:58;;;;;;;34.78;6.70;;;24.30;69.90;;;;;;4986453;28;20031;-54
2023/05/22 12:21:25;;;;;;;33.75;5.85;;;24.30;69.50;;;;;;4985262;28;20119;-55
2023/05/22 12:23:51;;;;;;;25.33;5.82;;;24.30;69.00;;;;;;4982261;28;20057;-55
2023/05/22 12:26:17;;;;;;;21.02;5.85;;;24.40;68.50;;;;;;4979222;28;20586;-54
2023/05/22 12:28:43;;;;;;;22.20;6.07;;;24.50;68.60;;;;;;4979770;28;20041;-55
2023/05/22 12:31:08;;;;;;;21.45;5.32;;;24.50;67.80;;;;;;4999408;28;20042;-55
2023/05/22 12:33:34;;;;;;;14.95;5.65;;;24.60;67.40;;;;;;4992529;28;20483;-54
2023/05/22 12:36:01;;;;;;;17.70;5.35;;;24.60;67.10;;;;;;4998484;28;20053;-54
2023/05/22 12:38:29;;;;;;;16.63;5.70;;;24.70;65.50;;;;;;4983013;28;20043;-55
2023/05/22 12:40:55;;;;;;;59.08;8.65;;;24.70;65.70;;;;;;4986277;28;20050;-55
2023/05/22 12:43:22;;;;;;;31.77;6.35;;;24.80;65.50;;;;;;4994095;28;20065;-54